sensor_id;sensor_type;location;lat;lon;timestamp;pressure;altitude;pressure_sealevel;temperature;humidity
56006;BME280;41888;44.696;10.522;2023-03-15T00:00:53;99352.00;;;10.12;100.00
56006;BME280;41888;44.696;10.522;2023-03-15T00:03:21;99349.63;;;9.92;100.00
56006;BME280;41888;44.696;10.522;2023-03-15T00:05:49;99354.63;;;9.70;100.00
56006;BME280;41888;44.696;10.522;2023-03-15T00:08:17;99356.59;;;9.75;100.00
56006;BME280;41888;44.696;10.522;2023-03-15T00:10:45;99362.00;;;9.68;100.00
56006;BME280;41888;44.696;10.522;2023-03-15T00:13:13;99366.28;;;9.69;100.00
56006;BME280;41888;44.696;10.522;2023-03-15T00:15:48;99373.72;;;9.79;100.00
56006;BME280;41888;44.696;10.522;2023-03-15T00:18:16;99369.72;;;9.88;100.00
56006;BME280;41888;44.696;10.522;2023-03-15T00:20:42;99373.28;;;9.82;100.00
56006;BME280;41888;44.696;10.522;2023-03-15T00:23:09;99359.34;;;9.98;100.00
56006;BME280;41888;44.696;10.522;2023-03-15T00:25:36;99374.84;;;10.01;100.00
56006;BME280;41888;44.696;10.522;2023-03-15T00:28:02;99367.50;;;10.15;100.00
56006;BME280;41888;44.696;10.522;2023-03-15T00:30:29;99376.66;;;10.19;100.00
56006;BME280;41888;44.696;10.522;2023-03-15T00:32:55;99379.22;;;10.26;100.00
56006;BME280;41888;44.696;10.522;2023-03-15T00:35:22;99386.81;;;10.22;100.00
56006;BME280;41888;44.696;10.522;2023-03-15T00:37:55;99394.50;;;10.30;100.00
56006;BME280;41888;44.696;10.522;2023-03-15T00:40:22;99392.06;;;10.29;100.00
56006;BME280;41888;44.696;10.522;2023-03-15T00:42:49;99403.94;;;10.26;100.00
56006;BME280;41888;44.696;10.522;2023-03-15T00:45:18;99410.66;;;10.29;100.00
56006;BME280;41888;44.696;10.522;2023-03-15T00:47:48;99412.63;;;10.33;100.00
56006;BME280;41888;44.696;10.522;2023-03-15T00:50:15;99417.97;;;10.45;100.00
56006;BME280;41888;44.696;10.522;2023-03-15T00:52:41;99418.66;;;10.40;100.00
56006;BME280;41888;44.696;10.522;2023-03-15T00:55:11;99418.66;;;10.40;100.00
56006;BME280;41888;44.696;10.522;2023-03-15T00:57:44;99419.56;;;10.34;100.00
56006;BME280;41888;44.696;10.522;2023-03-15T01:00:14;99423.72;;;10.30;100.00
56006;BME280;41888;44.696;10.522;2023-03-15T01:02:41;99434.25;;;10.25;100.00
56006;BME280;41888;44.696;10.522;2023-03-15T01:05:09;99430.38;;;10.21;100.00
56006;BME280;41888;44.696;10.522;2023-03-15T01:07:35;99428.69;;;10.27;100.00
56006;BME280;41888;44.696;10.522;2023-03-15T01:10:03;99424.53;;;10.31;100.00
56006;BME280;41888;44.696;10.522;2023-03-15T01:12:31;99424.75;;;10.29;100.00
56006;BME280;41888;44.696;10.522;2023-03-15T01:14:58;99436.22;;;10.30;100.00
56006;BME280;41888;44.696;10.522;2023-03-15T01:17:25;99441.28;;;10.31;100.00
56006;BME280;41888;44.696;10.522;2023-03-15T01:19:51;99446.75;;;10.36;100.00
56006;BME280;41888;44.696;10.522;2023-03-15T01:22:18;99452.63;;;10.38;100.00
56006;BME280;41888;44.696;10.522;2023-03-15T01:24:45;99458.31;;;10.42;100.00
56006;BME280;41888;44.696;10.522;2023-03-15T01:27:12;99457.66;;;10.46;100.00
56006;BME280;41888;44.696;10.522;2023-03-15T01:29:38;99464.91;;;10.39;100.00
56006;BME280;41888;44.696;10.522;2023-03-15T01:32:04;99461.09;;;10.47;100.00
56006;BME280;41888;44.696;10.522;2023-03-15T01:34:30;99461.91;;;10.47;100.00
56006;BME280;41888;44.696;10.522;2023-03-15T01:36:57;99468.03;;;10.36;100.00
56006;BME280;41888;44.696;10.522;2023-03-15T01:39:23;99468.16;;;10.41;100.00
56006;BME280;41888;44.696;10.522;2023-03-15T01:41:49;99470.22;;;10.39;100.00
56006;BME280;41888;44.696;10.522;2023-03-15T01:44:18;99474.47;;;10.29;100.00
56006;BME280;41888;44.696;10.522;2023-03-15T01:46:44;99477.13;;;10.29;100.00
56006;BME280;41888;44.696;10.522;2023-03-15T01:49:18;99474.59;;;10.34;100.00
56006;BME280;41888;44.696;10.522;2023-03-15T01:54:21;99471.88;;;10.22;100.00
56006;BME280;41888;44.696;10.522;2023-03-15T01:57:07;99470.72;;;10.18;100.00
56006;BME280;41888;44.696;10.522;2023-03-15T01:59:48;99469.53;;;10.14;100.00
56006;BME280;41888;44.696;10.522;2023-03-15T02:02:16;99474.53;;;10.22;100.00
56006;BME280;41888;44.696;10.522;2023-03-15T02:04:47;99473.38;;;10.18;100.00
56006;BME280;41888;44.696;10.522;2023-03-15T02:07:15;99474.03;;;10.13;100.00
56006;BME280;41888;44.696;10.522;2023-03-15T02:09:46;99477.66;;;10.19;100.00
56006;BME280;41888;44.696;10.522;2023-03-15T02:12:16;99468.34;;;10.10;100.00
56006;BME280;41888;44.696;10.522;2023-03-15T02:14:44;99469.41;;;10.09;100.00
56006;BME280;41888;44.696;10.522;2023-03-15T02:17:10;99469.91;;;9.99;100.00
56006;BME280;41888;44.696;10.522;2023-03-15T02:22:54;99474.06;;;9.95;100.00
56006;BME280;41888;44.696;10.522;2023-03-15T02:28:22;99469.13;;;9.81;100.00
56006;BME280;41888;44.696;10.522;2023-03-15T02:30:49;99472.34;;;10.01;100.00
56006;BME280;41888;44.696;10.522;2023-03-15T02:35:44;99472.75;;;9.86;100.00
56006;BME280;41888;44.696;10.522;2023-03-15T02:38:10;99473.41;;;9.82;100.00
56006;BME280;41888;44.696;10.522;2023-03-15T02:40:37;99478.16;;;9.61;100.00
56006;BME280;41888;44.696;10.522;2023-03-15T02:43:10;99474.28;;;9.39;100.00
56006;BME280;41888;44.696;10.522;2023-03-15T02:45:38;99480.78;;;9.43;100.00
56006;BME280;41888;44.696;10.522;2023-03-15T02:48:05;99483.88;;;9.40;100.00
56006;BME280;41888;44.696;10.522;2023-03-15T02:50:41;99487.63;;;9.32;100.00
56006;BME280;41888;44.696;10.522;2023-03-15T02:53:07;99482.69;;;9.36;100.00
56006;BME280;41888;44.696;10.522;2023-03-15T02:55:34;99489.16;;;9.22;100.00
56006;BME280;41888;44.696;10.522;2023-03-15T02:58:01;99492.56;;;9.29;100.00
56006;BME280;41888;44.696;10.522;2023-03-15T03:00:28;99497.78;;;9.17;100.00
56006;BME280;41888;44.696;10.522;2023-03-15T03:02:54;99501.03;;;9.19;100.00
56006;BME280;41888;44.696;10.522;2023-03-15T03:05:20;99500.88;;;9.14;100.00
56006;BME280;41888;44.696;10.522;2023-03-15T03:07:47;99499.97;;;9.02;100.00
56006;BME280;41888;44.696;10.522;2023-03-15T03:10:17;99500.94;;;9.08;100.00
56006;BME280;41888;44.696;10.522;2023-03-15T03:12:43;99498.69;;;9.05;100.00
56006;BME280;41888;44.696;10.522;2023-03-15T03:15:10;99494.28;;;8.99;100.00
56006;BME280;41888;44.696;10.522;2023-03-15T03:17:37;99500.78;;;9.03;100.00
56006;BME280;41888;44.696;10.522;2023-03-15T03:20:06;99501.63;;;8.97;100.00
56006;BME280;41888;44.696;10.522;2023-03-15T03:22:36;99506.25;;;9.08;100.00
56006;BME280;41888;44.696;10.522;2023-03-15T03:25:03;99499.81;;;8.97;100.00
56006;BME280;41888;44.696;10.522;2023-03-15T03:27:29;99498.38;;;8.95;100.00
56006;BME280;41888;44.696;10.522;2023-03-15T03:29:55;99493.16;;;8.88;100.00
56006;BME280;41888;44.696;10.522;2023-03-15T03:32:22;99485.81;;;8.83;100.00
56006;BME280;41888;44.696;10.522;2023-03-15T03:34:48;99494.88;;;8.76;99.70
56006;BME280;41888;44.696;10.522;2023-03-15T03:37:18;99492.03;;;8.71;99.24
56006;BME280;41888;44.696;10.522;2023-03-15T03:39:44;99498.16;;;8.71;98.52
56006;BME280;41888;44.696;10.522;2023-03-15T03:42:11;99505.50;;;8.69;99.10
56006;BME280;41888;44.696;10.522;2023-03-15T03:44:37;99522.03;;;8.71;95.56
56006;BME280;41888;44.696;10.522;2023-03-15T03:47:04;99523.47;;;8.67;91.55
56006;BME280;41888;44.696;10.522;2023-03-15T03:49:30;99519.03;;;8.93;87.51
56006;BME280;41888;44.696;10.522;2023-03-15T03:51:56;99527.41;;;8.89;84.68
56006;BME280;41888;44.696;10.522;2023-03-15T03:54:22;99526.91;;;8.99;85.02
56006;BME280;41888;44.696;10.522;2023-03-15T03:56:49;99530.22;;;8.95;84.00
56006;BME280;41888;44.696;10.522;2023-03-15T03:59:16;99531.19;;;9.00;84.38
56006;BME280;41888;44.696;10.522;2023-03-15T04:01:42;99527.31;;;9.03;81.72
56006;BME280;41888;44.696;10.522;2023-03-15T04:04:08;99534.13;;;8.92;80.94
56006;BME280;41888;44.696;10.522;2023-03-15T04:06:34;99541.25;;;8.92;81.59
56006;BME280;41888;44.696;10.522;2023-03-15T04:09:01;99529.84;;;8.91;78.62
56006;BME280;41888;44.696;10.522;2023-03-15T04:11:30;99541.84;;;8.94;78.36
56006;BME280;41888;44.696;10.522;2023-03-15T04:13:56;99547.06;;;8.82;77.71
56006;BME280;41888;44.696;10.522;2023-03-15T04:16:22;99550.25;;;8.90;74.93
56006;BME280;41888;44.696;10.522;2023-03-15T04:18:49;99542.59;;;8.76;74.50
56006;BME280;41888;44.696;10.522;2023-03-15T04:21:15;99559.31;;;8.76;73.92
56006;BME280;41888;44.696;10.522;2023-03-15T04:23:41;99546.31;;;8.68;73.30
56006;BME280;41888;44.696;10.522;2023-03-15T04:26:08;99547.94;;;8.69;72.18
56006;BME280;41888;44.696;10.522;2023-03-15T04:28:34;99551.63;;;8.68;70.50
56006;BME280;41888;44.696;10.522;2023-03-15T04:31:03;99563.50;;;8.59;69.75
56006;BME280;41888;44.696;10.522;2023-03-15T04:33:29;99557.19;;;8.60;67.96
56006;BME280;41888;44.696;10.522;2023-03-15T04:35:57;99565.31;;;8.65;66.36
56006;BME280;41888;44.696;10.522;2023-03-15T04:38:23;99555.94;;;8.63;65.96
56006;BME280;41888;44.696;10.522;2023-03-15T04:40:52;99556.38;;;8.60;65.76
56006;BME280;41888;44.696;10.522;2023-03-15T04:43:20;99570.81;;;8.64;65.13
56006;BME280;41888;44.696;10.522;2023-03-15T04:45:47;99574.09;;;8.66;63.03
56006;BME280;41888;44.696;10.522;2023-03-15T04:48:13;99575.72;;;8.67;62.52
56006;BME280;41888;44.696;10.522;2023-03-15T04:50:39;99573.06;;;8.67;62.43
56006;BME280;41888;44.696;10.522;2023-03-15T04:53:05;99579.97;;;8.68;60.54
56006;BME280;41888;44.696;10.522;2023-03-15T04:55:31;99578.88;;;8.82;59.87
56006;BME280;41888;44.696;10.522;2023-03-15T04:57:58;99585.16;;;8.87;57.28
56006;BME280;41888;44.696;10.522;2023-03-15T05:00:24;99569.25;;;8.87;55.79
56006;BME280;41888;44.696;10.522;2023-03-15T05:02:50;99575.75;;;8.92;55.29
56006;BME280;41888;44.696;10.522;2023-03-15T05:05:21;99579.06;;;8.87;55.67
56006;BME280;41888;44.696;10.522;2023-03-15T05:07:48;99581.75;;;8.80;56.50
56006;BME280;41888;44.696;10.522;2023-03-15T05:10:14;99598.09;;;8.77;57.72
56006;BME280;41888;44.696;10.522;2023-03-15T05:12:41;99595.84;;;8.74;56.67
56006;BME280;41888;44.696;10.522;2023-03-15T05:15:07;99607.53;;;8.67;56.32
56006;BME280;41888;44.696;10.522;2023-03-15T05:17:34;99594.84;;;8.69;57.21
56006;BME280;41888;44.696;10.522;2023-03-15T05:20:00;99607.75;;;8.59;57.01
56006;BME280;41888;44.696;10.522;2023-03-15T05:22:27;99616.19;;;8.49;58.26
56006;BME280;41888;44.696;10.522;2023-03-15T05:24:53;99611.50;;;8.51;57.65
56006;BME280;41888;44.696;10.522;2023-03-15T05:27:19;99611.50;;;8.44;57.14
56006;BME280;41888;44.696;10.522;2023-03-15T05:29:46;99617.44;;;8.40;57.19
56006;BME280;41888;44.696;10.522;2023-03-15T05:32:12;99618.25;;;8.40;57.22
56006;BME280;41888;44.696;10.522;2023-03-15T05:34:38;99627.44;;;8.38;58.03
56006;BME280;41888;44.696;10.522;2023-03-15T05:37:05;99623.97;;;8.31;59.13
56006;BME280;41888;44.696;10.522;2023-03-15T05:39:31;99634.78;;;8.36;59.01
56006;BME280;41888;44.696;10.522;2023-03-15T05:41:59;99641.91;;;8.35;59.09
56006;BME280;41888;44.696;10.522;2023-03-15T05:44:26;99648.44;;;8.39;57.86
56006;BME280;41888;44.696;10.522;2023-03-15T05:46:53;99639.25;;;8.35;58.49
56006;BME280;41888;44.696;10.522;2023-03-15T05:49:19;99654.97;;;8.37;58.73
56006;BME280;41888;44.696;10.522;2023-03-15T05:51:45;99646.72;;;8.58;57.52
56006;BME280;41888;44.696;10.522;2023-03-15T05:54:11;99655.25;;;9.86;54.63
56006;BME280;41888;44.696;10.522;2023-03-15T05:56:38;99659.00;;;11.47;49.60
56006;BME280;41888;44.696;10.522;2023-03-15T05:59:04;99672.31;;;12.63;45.15
56006;BME280;41888;44.696;10.522;2023-03-15T06:01:30;99670.84;;;13.41;41.66
56006;BME280;41888;44.696;10.522;2023-03-15T06:03:56;99673.63;;;14.56;38.56
56006;BME280;41888;44.696;10.522;2023-03-15T06:06:22;99683.56;;;15.04;37.36
56006;BME280;41888;44.696;10.522;2023-03-15T06:08:48;99687.03;;;15.85;36.12
56006;BME280;41888;44.696;10.522;2023-03-15T06:11:15;99687.19;;;16.58;34.21
56006;BME280;41888;44.696;10.522;2023-03-15T06:13:41;99699.78;;;17.14;33.70
56006;BME280;41888;44.696;10.522;2023-03-15T06:16:07;99709.00;;;17.54;31.75
56006;BME280;41888;44.696;10.522;2023-03-15T06:18:33;99705.75;;;18.33;30.61
56006;BME280;41888;44.696;10.522;2023-03-15T06:20:59;99712.16;;;19.21;28.67
56006;BME280;41888;44.696;10.522;2023-03-15T06:23:26;99713.69;;;19.32;28.57
56006;BME280;41888;44.696;10.522;2023-03-15T06:25:52;99728.78;;;19.83;27.81
56006;BME280;41888;44.696;10.522;2023-03-15T06:28:18;99732.88;;;19.75;27.87
56006;BME280;41888;44.696;10.522;2023-03-15T06:30:44;99739.25;;;20.18;27.19
56006;BME280;41888;44.696;10.522;2023-03-15T06:33:10;99745.09;;;20.30;27.45
56006;BME280;41888;44.696;10.522;2023-03-15T06:35:36;99753.66;;;20.90;26.79
56006;BME280;41888;44.696;10.522;2023-03-15T06:38:03;99753.09;;;21.54;25.92
56006;BME280;41888;44.696;10.522;2023-03-15T06:40:30;99764.50;;;22.21;25.63
56006;BME280;41888;44.696;10.522;2023-03-15T06:42:56;99758.88;;;22.91;25.25
56006;BME280;41888;44.696;10.522;2023-03-15T06:45:22;99772.34;;;22.96;25.49
56006;BME280;41888;44.696;10.522;2023-03-15T06:47:48;99769.38;;;23.33;25.46
56006;BME280;41888;44.696;10.522;2023-03-15T06:50:15;99779.78;;;23.17;25.61
56006;BME280;41888;44.696;10.522;2023-03-15T06:52:41;99779.97;;;23.21;25.75
56006;BME280;41888;44.696;10.522;2023-03-15T06:55:08;99789.34;;;24.54;25.46
56006;BME280;41888;44.696;10.522;2023-03-15T06:57:35;99777.44;;;22.70;25.30
56006;BME280;41888;44.696;10.522;2023-03-15T07:00:01;99783.41;;;22.72;25.43
56006;BME280;41888;44.696;10.522;2023-03-15T07:02:28;99778.38;;;23.06;25.48
56006;BME280;41888;44.696;10.522;2023-03-15T07:04:58;99795.72;;;23.33;25.16
56006;BME280;41888;44.696;10.522;2023-03-15T07:07:24;99790.78;;;24.20;24.06
56006;BME280;41888;44.696;10.522;2023-03-15T07:09:51;99790.66;;;23.67;24.99
56006;BME280;41888;44.696;10.522;2023-03-15T07:12:17;99784.66;;;23.56;24.62
56006;BME280;41888;44.696;10.522;2023-03-15T07:14:43;99790.19;;;21.54;26.15
56006;BME280;41888;44.696;10.522;2023-03-15T07:17:11;99799.94;;;19.97;28.22
56006;BME280;41888;44.696;10.522;2023-03-15T07:19:37;99796.38;;;18.93;29.85
56006;BME280;41888;44.696;10.522;2023-03-15T07:22:04;99795.56;;;17.46;31.50
56006;BME280;41888;44.696;10.522;2023-03-15T07:24:30;99797.16;;;17.37;32.24
56006;BME280;41888;44.696;10.522;2023-03-15T07:26:56;99798.16;;;16.26;34.20
56006;BME280;41888;44.696;10.522;2023-03-15T07:29:23;99801.69;;;16.00;35.03
56006;BME280;41888;44.696;10.522;2023-03-15T07:31:49;99812.28;;;15.85;35.20
56006;BME280;41888;44.696;10.522;2023-03-15T07:34:16;99809.03;;;15.83;34.66
56006;BME280;41888;44.696;10.522;2023-03-15T07:36:42;99813.09;;;15.37;35.23
56006;BME280;41888;44.696;10.522;2023-03-15T07:39:08;99813.56;;;14.68;35.94
56006;BME280;41888;44.696;10.522;2023-03-15T07:41:35;99810.00;;;14.63;37.37
56006;BME280;41888;44.696;10.522;2023-03-15T07:44:01;99812.34;;;15.19;37.53
56006;BME280;41888;44.696;10.522;2023-03-15T07:46:27;99819.78;;;14.74;36.53
56006;BME280;41888;44.696;10.522;2023-03-15T07:48:53;99822.06;;;14.65;37.30
56006;BME280;41888;44.696;10.522;2023-03-15T07:51:20;99825.31;;;14.34;37.04
56006;BME280;41888;44.696;10.522;2023-03-15T07:53:46;99821.28;;;14.31;38.02
56006;BME280;41888;44.696;10.522;2023-03-15T07:56:12;99817.22;;;14.62;37.38
56006;BME280;41888;44.696;10.522;2023-03-15T07:58:38;99825.22;;;14.12;37.81
56006;BME280;41888;44.696;10.522;2023-03-15T08:01:05;99828.78;;;14.34;37.57
56006;BME280;41888;44.696;10.522;2023-03-15T08:03:31;99839.22;;;14.48;38.18
56006;BME280;41888;44.696;10.522;2023-03-15T08:05:57;99830.00;;;14.10;38.69
56006;BME280;41888;44.696;10.522;2023-03-15T08:08:23;99835.38;;;14.27;38.86
56006;BME280;41888;44.696;10.522;2023-03-15T08:10:50;99847.69;;;14.11;38.26
56006;BME280;41888;44.696;10.522;2023-03-15T08:13:16;99845.00;;;14.28;38.44
56006;BME280;41888;44.696;10.522;2023-03-15T08:15:45;99845.28;;;14.26;38.46
56006;BME280;41888;44.696;10.522;2023-03-15T08:18:12;99863.41;;;14.24;37.87
56006;BME280;41888;44.696;10.522;2023-03-15T08:20:38;99859.16;;;14.40;38.90
56006;BME280;41888;44.696;10.522;2023-03-15T08:23:04;99858.63;;;14.38;38.51
56006;BME280;41888;44.696;10.522;2023-03-15T08:25:31;99861.16;;;14.33;37.95
56006;BME280;41888;44.696;10.522;2023-03-15T08:27:57;99860.28;;;14.44;38.37
56006;BME280;41888;44.696;10.522;2023-03-15T08:30:24;99873.22;;;14.19;37.22
56006;BME280;41888;44.696;10.522;2023-03-15T08:32:50;99867.50;;;14.27;37.06
56006;BME280;41888;44.696;10.522;2023-03-15T08:35:19;99873.03;;;14.54;36.00
56006;BME280;41888;44.696;10.522;2023-03-15T08:37:46;99876.03;;;14.57;36.96
56006;BME280;41888;44.696;10.522;2023-03-15T08:40:14;99874.56;;;14.66;37.45
56006;BME280;41888;44.696;10.522;2023-03-15T08:42:41;99870.53;;;14.47;35.95
56006;BME280;41888;44.696;10.522;2023-03-15T08:45:08;99880.69;;;14.33;35.65
56006;BME280;41888;44.696;10.522;2023-03-15T08:47:34;99879.84;;;14.61;35.93
56006;BME280;41888;44.696;10.522;2023-03-15T08:50:06;99881.78;;;14.66;36.14
56006;BME280;41888;44.696;10.522;2023-03-15T08:52:33;99891.69;;;14.65;35.42
56006;BME280;41888;44.696;10.522;2023-03-15T08:54:59;99902.81;;;14.57;35.73
56006;BME280;41888;44.696;10.522;2023-03-15T08:57:26;99902.28;;;14.44;36.10
56006;BME280;41888;44.696;10.522;2023-03-15T08:59:54;99916.28;;;14.62;37.23
56006;BME280;41888;44.696;10.522;2023-03-15T09:02:21;99915.03;;;14.87;36.88
56006;BME280;41888;44.696;10.522;2023-03-15T09:04:48;99917.78;;;14.92;37.16
56006;BME280;41888;44.696;10.522;2023-03-15T09:07:15;99917.94;;;15.02;36.25
56006;BME280;41888;44.696;10.522;2023-03-15T09:09:41;99931.09;;;15.03;37.60
56006;BME280;41888;44.696;10.522;2023-03-15T09:12:16;99932.88;;;15.14;37.16
56006;BME280;41888;44.696;10.522;2023-03-15T09:14:43;99932.69;;;15.21;36.91
56006;BME280;41888;44.696;10.522;2023-03-15T09:17:10;99929.28;;;15.26;36.09
56006;BME280;41888;44.696;10.522;2023-03-15T09:19:36;99929.16;;;15.37;36.80
56006;BME280;41888;44.696;10.522;2023-03-15T09:22:02;99932.94;;;15.58;36.61
56006;BME280;41888;44.696;10.522;2023-03-15T09:24:29;99925.84;;;15.69;36.59
56006;BME280;41888;44.696;10.522;2023-03-15T09:26:55;99941.94;;;15.90;36.61
56006;BME280;41888;44.696;10.522;2023-03-15T09:29:21;99941.94;;;16.17;36.88
56006;BME280;41888;44.696;10.522;2023-03-15T09:31:47;99935.72;;;16.12;36.38
56006;BME280;41888;44.696;10.522;2023-03-15T09:34:13;99946.91;;;16.30;35.57
56006;BME280;41888;44.696;10.522;2023-03-15T09:36:40;99947.19;;;16.34;36.31
56006;BME280;41888;44.696;10.522;2023-03-15T09:39:06;99955.63;;;16.42;35.87
56006;BME280;41888;44.696;10.522;2023-03-15T09:41:47;99946.53;;;16.48;36.49
56006;BME280;41888;44.696;10.522;2023-03-15T09:49:40;99973.16;;;16.82;35.60
56006;BME280;41888;44.696;10.522;2023-03-15T09:54:59;99962.47;;;16.87;34.97
56006;BME280;41888;44.696;10.522;2023-03-15T09:57:51;99969.34;;;16.73;34.99
56006;BME280;41888;44.696;10.522;2023-03-15T10:02:59;99971.91;;;16.89;33.23
56006;BME280;41888;44.696;10.522;2023-03-15T10:05:54;99977.88;;;16.97;34.08
56006;BME280;41888;44.696;10.522;2023-03-15T10:08:22;99982.72;;;17.00;34.15
56006;BME280;41888;44.696;10.522;2023-03-15T10:16:39;99987.72;;;18.32;31.20
56006;BME280;41888;44.696;10.522;2023-03-15T10:19:31;99996.69;;;18.73;32.31
56006;BME280;41888;44.696;10.522;2023-03-15T10:27:46;100006.69;;;19.03;29.78
56006;BME280;41888;44.696;10.522;2023-03-15T10:30:47;100007.47;;;19.04;30.38
56006;BME280;41888;44.696;10.522;2023-03-15T10:33:34;100004.25;;;19.02;31.10
56006;BME280;41888;44.696;10.522;2023-03-15T10:36:07;100014.97;;;19.57;32.14
56006;BME280;41888;44.696;10.522;2023-03-15T10:38:36;100005.88;;;18.92;30.68
56006;BME280;41888;44.696;10.522;2023-03-15T10:41:05;100006.28;;;19.80;30.93
56006;BME280;41888;44.696;10.522;2023-03-15T10:43:34;100016.78;;;19.92;30.87
56006;BME280;41888;44.696;10.522;2023-03-15T10:48:50;100013.78;;;20.92;29.20
56006;BME280;41888;44.696;10.522;2023-03-15T10:56:23;100022.28;;;21.09;28.19
56006;BME280;41888;44.696;10.522;2023-03-15T10:58:53;100025.03;;;20.70;27.41
56006;BME280;41888;44.696;10.522;2023-03-15T11:01:28;100020.75;;;21.32;28.44
56006;BME280;41888;44.696;10.522;2023-03-15T11:06:44;100029.28;;;21.10;28.40
56006;BME280;41888;44.696;10.522;2023-03-15T11:09:13;100035.47;;;21.49;27.23
56006;BME280;41888;44.696;10.522;2023-03-15T11:14:17;100038.56;;;21.38;28.57
56006;BME280;41888;44.696;10.522;2023-03-15T11:16:47;100040.59;;;21.22;37.52
56006;BME280;41888;44.696;10.522;2023-03-15T11:19:21;100037.88;;;20.83;40.34
56006;BME280;41888;44.696;10.522;2023-03-15T11:21:49;100042.78;;;18.77;45.23
56006;BME280;41888;44.696;10.522;2023-03-15T11:24:26;100051.69;;;19.28;42.27
56006;BME280;41888;44.696;10.522;2023-03-15T11:26:54;100049.00;;;19.33;44.86
56006;BME280;41888;44.696;10.522;2023-03-15T11:29:34;100050.06;;;19.52;46.60
56006;BME280;41888;44.696;10.522;2023-03-15T11:32:36;100059.13;;;18.45;49.31
56006;BME280;41888;44.696;10.522;2023-03-15T11:35:07;100066.16;;;19.98;47.27
56006;BME280;41888;44.696;10.522;2023-03-15T11:40:35;100068.44;;;17.65;54.90
56006;BME280;41888;44.696;10.522;2023-03-15T11:45:57;100067.00;;;15.75;66.48
56006;BME280;41888;44.696;10.522;2023-03-15T11:48:46;100074.16;;;15.19;73.77
56006;BME280;41888;44.696;10.522;2023-03-15T11:51:13;100073.59;;;15.00;78.73
56006;BME280;41888;44.696;10.522;2023-03-15T11:56:56;100071.84;;;14.77;85.19
56006;BME280;41888;44.696;10.522;2023-03-15T11:59:29;100075.44;;;15.00;84.36
56006;BME280;41888;44.696;10.522;2023-03-15T12:02:00;100071.34;;;14.80;86.84
56006;BME280;41888;44.696;10.522;2023-03-15T12:09:54;100078.69;;;15.02;85.36
56006;BME280;41888;44.696;10.522;2023-03-15T12:25:37;100074.34;;;19.17;52.18
56006;BME280;41888;44.696;10.522;2023-03-15T12:28:20;100068.41;;;19.10;54.15
56006;BME280;41888;44.696;10.522;2023-03-15T12:30:54;100068.69;;;19.49;51.57
56006;BME280;41888;44.696;10.522;2023-03-15T12:33:22;100071.66;;;19.07;49.37
56006;BME280;41888;44.696;10.522;2023-03-15T12:35:50;100072.22;;;18.16;47.44
56006;BME280;41888;44.696;10.522;2023-03-15T12:38:23;100068.94;;;18.76;46.84
56006;BME280;41888;44.696;10.522;2023-03-15T12:40:55;100074.59;;;18.07;48.00
56006;BME280;41888;44.696;10.522;2023-03-15T12:43:41;100071.25;;;17.11;50.27
56006;BME280;41888;44.696;10.522;2023-03-15T12:54:49;100091.75;;;13.78;75.83
56006;BME280;41888;44.696;10.522;2023-03-15T12:57:21;100084.88;;;13.82;75.58
56006;BME280;41888;44.696;10.522;2023-03-15T13:00:14;100076.84;;;14.06;76.01
56006;BME280;41888;44.696;10.522;2023-03-15T13:05:29;100074.88;;;13.89;79.47
56006;BME280;41888;44.696;10.522;2023-03-15T13:08:15;100091.38;;;13.86;80.54
56006;BME280;41888;44.696;10.522;2023-03-15T13:16:07;100105.41;;;12.82;85.11
56006;BME280;41888;44.696;10.522;2023-03-15T13:33:17;100090.94;;;13.01;86.08
56006;BME280;41888;44.696;10.522;2023-03-15T13:41:24;100079.75;;;13.23;82.15
56006;BME280;41888;44.696;10.522;2023-03-15T13:43:53;100091.75;;;13.32;82.56
56006;BME280;41888;44.696;10.522;2023-03-15T13:46:22;100078.84;;;13.52;79.95
56006;BME280;41888;44.696;10.522;2023-03-15T13:48:50;100086.25;;;14.08;78.28
56006;BME280;41888;44.696;10.522;2023-03-15T13:53:50;100102.72;;;14.40;73.38
56006;BME280;41888;44.696;10.522;2023-03-15T13:56:26;100093.75;;;14.23;74.62
56006;BME280;41888;44.696;10.522;2023-03-15T13:58:52;100115.66;;;13.38;78.35
56006;BME280;41888;44.696;10.522;2023-03-15T14:01:19;100107.56;;;13.68;78.96
56006;BME280;41888;44.696;10.522;2023-03-15T14:03:57;100116.81;;;14.24;76.37
56006;BME280;41888;44.696;10.522;2023-03-15T14:06:25;100105.81;;;13.62;81.30
56006;BME280;41888;44.696;10.522;2023-03-15T14:08:53;100108.28;;;13.64;81.61
56006;BME280;41888;44.696;10.522;2023-03-15T14:13:59;100110.41;;;14.13;77.83
56006;BME280;41888;44.696;10.522;2023-03-15T14:16:42;100112.22;;;13.73;81.49
56006;BME280;41888;44.696;10.522;2023-03-15T14:21:43;100115.63;;;13.15;87.36
56006;BME280;41888;44.696;10.522;2023-03-15T14:24:35;100132.06;;;13.65;86.25
56006;BME280;41888;44.696;10.522;2023-03-15T14:27:12;100124.19;;;13.82;84.72
56006;BME280;41888;44.696;10.522;2023-03-15T14:29:51;100123.72;;;13.73;84.08
56006;BME280;41888;44.696;10.522;2023-03-15T14:32:49;100128.78;;;13.28;84.01
56006;BME280;41888;44.696;10.522;2023-03-15T14:37:45;100121.81;;;13.16;84.77
56006;BME280;41888;44.696;10.522;2023-03-15T14:40:32;100133.91;;;13.30;83.34
56006;BME280;41888;44.696;10.522;2023-03-15T14:43:04;100140.69;;;13.67;82.42
56006;BME280;41888;44.696;10.522;2023-03-15T14:45:32;100136.72;;;14.05;81.37
56006;BME280;41888;44.696;10.522;2023-03-15T14:48:07;100136.13;;;14.03;79.92
56006;BME280;41888;44.696;10.522;2023-03-15T14:50:38;100149.88;;;13.71;83.41
56006;BME280;41888;44.696;10.522;2023-03-15T14:53:06;100149.28;;;13.92;83.61
56006;BME280;41888;44.696;10.522;2023-03-15T14:55:37;100152.06;;;13.86;82.94
56006;BME280;41888;44.696;10.522;2023-03-15T14:58:23;100148.34;;;14.22;80.30